Time;durP1;ratioP1;P1;durP2;ratioP2;P2;SDS_P1;SDS_P2;PMS_P1;PMS_P2;Temp;Humidity;BMP_temperature;BMP_pressure;BME280_temperature;BME280_humidity;BME280_pressure;Samples;Min_cycle;Max_cycle;Signal;HPM_P1;HPM_P2
2022/03/10 00:01:22;;;;;;;22.05;12.93;;;;;;;;;;5086898;28;20082;-59
2022/03/10 00:03:48;;;;;;;21.13;13.30;;;;;;;;;;5076793;28;20036;-59
2022/03/10 00:06:14;;;;;;;20.05;14.00;;;;;;;;;;5066209;28;20045;-59
2022/03/10 00:08:40;;;;;;;20.27;13.10;;;;;;;;;;5072315;28;20405;-59
2022/03/10 00:11:06;;;;;;;21.30;13.15;;;;;;;;;;5073506;28;20048;-59
2022/03/10 00:13:32;;;;;;;21.70;13.02;;;;;;;;;;5082601;28;20097;-59
2022/03/10 00:15:59;;;;;;;21.65;13.02;;;;;;;;;;5079247;28;20045;-59
2022/03/10 00:18:25;;;;;;;20.88;14.18;;;;;;;;;;5084911;28;20040;-59
2022/03/10 00:20:51;;;;;;;20.88;13.45;;;;;;;;;;5076774;28;20102;-59
2022/03/10 00:23:17;;;;;;;21.58;13.05;;;;;;;;;;5091526;28;20040;-59
2022/03/10 00:25:43;;;;;;;18.95;13.02;;;;;;;;;;5078956;28;20043;-59
2022/03/10 00:28:09;;;;;;;20.83;13.27;;;;;;;;;;5082345;28;20406;-59
2022/03/10 00:30:35;;;;;;;21.38;13.40;;;;;;;;;;5090159;28;20044;-59
2022/03/10 00:33:01;;;;;;;21.30;14.10;;;;;;;;;;5091501;28;20036;-59
2022/03/10 00:35:27;;;;;;;26.27;14.20;;;;;;;;;;5083740;28;20036;-59
2022/03/10 00:37:54;;;;;;;21.27;12.90;;;;;;;;;;5078090;28;20101;-59
2022/03/10 00:40:20;;;;;;;24.15;14.13;;;;;;;;;;5086940;28;20101;-59
2022/03/10 00:42:46;;;;;;;24.95;14.65;;;;;;;;;;5071235;28;20402;-59
2022/03/10 00:45:13;;;;;;;21.58;14.07;;;;;;;;;;5073445;28;20539;-59
2022/03/10 00:47:39;;;;;;;21.63;14.25;;;;;;;;;;5082040;28;20056;-59
2022/03/10 00:50:07;;;;;;;22.48;13.68;;;;;;;;;;5074968;28;20040;-59
2022/03/10 00:52:33;;;;;;;21.98;13.98;;;;;;;;;;5055427;28;20037;-59
2022/03/10 00:54:59;;;;;;;22.38;14.60;;;;;;;;;;5082242;28;20086;-59
2022/03/10 00:57:25;;;;;;;22.88;14.52;;;;;;;;;;5075972;28;20035;-59
2022/03/10 00:59:51;;;;;;;22.00;14.18;;;;;;;;;;5070646;28;20036;-59
2022/03/10 01:02:17;;;;;;;23.13;14.82;;;;;;;;;;5071170;28;20498;-59
2022/03/10 01:04:43;;;;;;;20.65;13.43;;;;;;;;;;5070604;28;20123;-59
2022/03/10 01:07:10;;;;;;;20.05;13.43;;;;;;;;;;5073138;28;20119;-59
2022/03/10 01:09:36;;;;;;;21.58;14.00;;;;;;;;;;5071990;28;20063;-58
2022/03/10 01:12:02;;;;;;;21.35;13.23;;;;;;;;;;5075109;28;20036;-58
2022/03/10 01:14:28;;;;;;;22.45;13.50;;;;;;;;;;5075025;28;20102;-59
2022/03/10 01:16:56;;;;;;;24.15;14.55;;;;;;;;;;5074716;28;20068;-59
2022/03/10 01:19:22;;;;;;;26.55;14.75;;;;;;;;;;5062269;28;20040;-59
2022/03/10 01:21:48;;;;;;;22.50;14.50;;;;;;;;;;5074002;28;20040;-59
2022/03/10 01:24:14;;;;;;;25.25;14.52;;;;;;;;;;5074821;28;20036;-59
2022/03/10 01:26:40;;;;;;;22.55;14.10;;;;;;;;;;5074528;28;20043;-59
2022/03/10 01:29:06;;;;;;;20.05;13.30;;;;;;;;;;5072821;28;20068;-59
2022/03/10 01:31:32;;;;;;;22.85;14.32;;;;;;;;;;5073217;28;20064;-59
2022/03/10 01:33:59;;;;;;;22.38;14.15;;;;;;;;;;5076067;28;20039;-59
2022/03/10 01:36:26;;;;;;;21.83;13.90;;;;;;;;;;5083266;28;20072;-59
2022/03/10 01:38:52;;;;;;;21.42;14.10;;;;;;;;;;5090798;28;20135;-59
2022/03/10 01:41:18;;;;;;;23.75;13.90;;;;;;;;;;5089367;28;20502;-59
2022/03/10 01:43:56;;;;;;;22.77;14.07;;;;;;;;;;5082682;28;20115;-59
2022/03/10 01:46:22;;;;;;;22.17;14.10;;;;;;;;;;5082560;28;20093;-59
2022/03/10 01:48:48;;;;;;;24.45;14.00;;;;;;;;;;5071886;28;20048;-59
2022/03/10 01:51:15;;;;;;;21.92;14.20;;;;;;;;;;5078778;28;20028;-59
2022/03/10 01:53:41;;;;;;;23.50;14.13;;;;;;;;;;5073829;28;20114;-59
2022/03/10 01:56:07;;;;;;;24.45;14.02;;;;;;;;;;5078122;28;20075;-59
2022/03/10 01:58:34;;;;;;;23.85;14.95;;;;;;;;;;5075551;28;20072;-59
2022/03/10 02:01:00;;;;;;;21.30;14.75;;;;;;;;;;5092024;28;20048;-59
2022/03/10 02:03:27;;;;;;;25.70;15.07;;;;;;;;;;5080150;28;20111;-59
2022/03/10 02:05:53;;;;;;;24.35;14.48;;;;;;;;;;5079862;28;20493;-59
2022/03/10 02:11:04;;;;;;;24.30;14.18;;;;;;;;;;5077018;28;20051;-59
2022/03/10 02:13:30;;;;;;;21.95;13.85;;;;;;;;;;5075612;28;20036;-58
2022/03/10 02:18:41;;;;;;;23.90;14.65;;;;;;;;;;5081861;28;20044;-58
2022/03/10 02:21:07;;;;;;;23.30;14.18;;;;;;;;;;5081399;28;20040;-59
2022/03/10 02:23:33;;;;;;;23.00;14.77;;;;;;;;;;5073138;28;20413;-59
2022/03/10 02:25:59;;;;;;;23.95;14.30;;;;;;;;;;5078683;28;20084;-59
2022/03/10 02:28:26;;;;;;;24.08;14.27;;;;;;;;;;5093361;28;20036;-59
2022/03/10 02:30:52;;;;;;;23.35;14.15;;;;;;;;;;5076632;28;20028;-58
2022/03/10 02:33:18;;;;;;;22.65;13.88;;;;;;;;;;5073779;28;20410;-59
2022/03/10 02:35:44;;;;;;;26.27;14.25;;;;;;;;;;5076096;28;20711;-58
2022/03/10 02:38:17;;;;;;;24.20;14.00;;;;;;;;;;5077665;28;20119;-59
2022/03/10 02:40:43;;;;;;;22.15;14.18;;;;;;;;;;5073443;28;20044;-58
2022/03/10 02:43:09;;;;;;;22.73;14.50;;;;;;;;;;5085567;28;20128;-59
2022/03/10 02:45:35;;;;;;;23.15;14.25;;;;;;;;;;5076852;28;20502;-59
2022/03/10 02:48:02;;;;;;;23.38;14.63;;;;;;;;;;5072872;28;20042;-59
2022/03/10 02:50:28;;;;;;;23.58;13.85;;;;;;;;;;5074456;28;20036;-59
2022/03/10 02:52:54;;;;;;;19.95;13.73;;;;;;;;;;5072363;28;20036;-59
2022/03/10 02:55:20;;;;;;;23.55;14.65;;;;;;;;;;5073260;28;20047;-59
2022/03/10 02:57:46;;;;;;;22.55;13.88;;;;;;;;;;5074074;28;20037;-59
2022/03/10 03:00:14;;;;;;;22.17;12.93;;;;;;;;;;5079605;28;20044;-59
2022/03/10 03:02:40;;;;;;;22.23;14.32;;;;;;;;;;5079033;28;20059;-59
2022/03/10 03:05:07;;;;;;;22.08;13.60;;;;;;;;;;5073605;28;20055;-59
2022/03/10 03:07:33;;;;;;;21.60;13.50;;;;;;;;;;5075263;28;20051;-59
2022/03/10 03:09:59;;;;;;;23.73;13.60;;;;;;;;;;5081289;28;20108;-59
2022/03/10 03:12:25;;;;;;;22.05;13.30;;;;;;;;;;5082948;28;20482;-59
2022/03/10 03:14:52;;;;;;;23.92;13.38;;;;;;;;;;5077165;28;20040;-59
2022/03/10 03:17:18;;;;;;;22.50;14.23;;;;;;;;;;5088321;28;20161;-59
2022/03/10 03:19:44;;;;;;;24.08;14.38;;;;;;;;;;5081810;28;20131;-59
2022/03/10 03:22:10;;;;;;;22.13;14.63;;;;;;;;;;5072948;28;20051;-59
2022/03/10 03:24:36;;;;;;;20.08;13.30;;;;;;;;;;5072771;28;20513;-59
2022/03/10 03:27:02;;;;;;;20.73;12.82;;;;;;;;;;5072417;28;20067;-59
2022/03/10 03:29:28;;;;;;;20.67;13.93;;;;;;;;;;5072677;28;20107;-59
2022/03/10 03:31:54;;;;;;;21.23;13.02;;;;;;;;;;5072432;28;20039;-59
2022/03/10 03:34:20;;;;;;;20.80;12.75;;;;;;;;;;5071762;28;20041;-59
2022/03/10 03:36:46;;;;;;;19.15;12.30;;;;;;;;;;5073819;28;20123;-59
2022/03/10 03:39:13;;;;;;;19.83;12.65;;;;;;;;;;5089702;28;20144;-59
2022/03/10 03:41:39;;;;;;;20.25;12.57;;;;;;;;;;5089106;28;20115;-59
2022/03/10 03:44:06;;;;;;;19.50;13.25;;;;;;;;;;5060171;28;20489;-59
2022/03/10 03:46:32;;;;;;;21.08;12.63;;;;;;;;;;5076461;28;20040;-58
2022/03/10 03:48:58;;;;;;;19.63;12.60;;;;;;;;;;5071816;28;20067;-58
2022/03/10 03:51:25;;;;;;;18.67;12.70;;;;;;;;;;5082399;28;20044;-59
2022/03/10 03:53:51;;;;;;;21.13;13.15;;;;;;;;;;5077769;28;20036;-59
2022/03/10 03:56:17;;;;;;;19.88;12.45;;;;;;;;;;5075159;28;20040;-59
2022/03/10 03:58:43;;;;;;;24.48;13.05;;;;;;;;;;5073314;28;20090;-59
2022/03/10 04:01:09;;;;;;;18.75;12.10;;;;;;;;;;5072446;28;20037;-59
2022/03/10 04:03:36;;;;;;;19.33;12.07;;;;;;;;;;5072502;28;20105;-59
2022/03/10 04:06:02;;;;;;;20.33;12.77;;;;;;;;;;5080022;28;20051;-58
2022/03/10 04:08:28;;;;;;;19.33;12.38;;;;;;;;;;5075814;28;20041;-59
2022/03/10 04:10:54;;;;;;;20.17;12.52;;;;;;;;;;5090268;28;20036;-59
2022/03/10 04:13:24;;;;;;;20.52;12.43;;;;;;;;;;5088727;28;20037;-59
2022/03/10 04:15:51;;;;;;;20.38;12.48;;;;;;;;;;5074418;28;20035;-59
2022/03/10 04:18:17;;;;;;;22.85;11.98;;;;;;;;;;5090802;28;20036;-58
2022/03/10 04:20:43;;;;;;;19.77;12.18;;;;;;;;;;5075609;28;20490;-59
2022/03/10 04:23:10;;;;;;;23.73;12.88;;;;;;;;;;5082819;28;20097;-59
2022/03/10 04:25:36;;;;;;;19.13;11.73;;;;;;;;;;5072659;28;20178;-59
2022/03/10 04:28:02;;;;;;;19.75;12.75;;;;;;;;;;5091428;28;20131;-59
2022/03/10 04:30:29;;;;;;;18.65;12.48;;;;;;;;;;5077034;28;20554;-58
2022/03/10 04:32:55;;;;;;;19.63;12.15;;;;;;;;;;5091149;28;20040;-59
2022/03/10 04:35:21;;;;;;;19.77;12.50;;;;;;;;;;5074417;28;20115;-59
2022/03/10 04:37:50;;;;;;;22.38;12.85;;;;;;;;;;5090568;28;20374;-59
2022/03/10 04:40:16;;;;;;;21.15;12.57;;;;;;;;;;5090041;28;20047;-58
2022/03/10 04:42:42;;;;;;;18.35;11.95;;;;;;;;;;5079335;28;20044;-59
2022/03/10 04:45:09;;;;;;;21.23;13.13;;;;;;;;;;5071571;28;20047;-58
2022/03/10 04:47:36;;;;;;;19.83;12.27;;;;;;;;;;5051183;28;20045;-59
2022/03/10 04:50:02;;;;;;;21.52;13.10;;;;;;;;;;5071592;28;20448;-59
2022/03/10 04:52:29;;;;;;;22.38;12.82;;;;;;;;;;5079496;28;20040;-58
2022/03/10 04:54:55;;;;;;;21.90;12.55;;;;;;;;;;5071136;28;20051;-59
2022/03/10 04:57:21;;;;;;;24.50;13.13;;;;;;;;;;5089128;28;20032;-58
2022/03/10 04:59:47;;;;;;;22.20;13.73;;;;;;;;;;5077350;28;20079;-59
2022/03/10 05:02:13;;;;;;;20.27;12.65;;;;;;;;;;5077087;28;20458;-59
2022/03/10 05:04:39;;;;;;;20.27;12.93;;;;;;;;;;5078433;28;20033;-58
2022/03/10 05:07:05;;;;;;;21.25;13.48;;;;;;;;;;5052611;28;20076;-58
2022/03/10 05:09:31;;;;;;;19.98;13.25;;;;;;;;;;5070812;28;20432;-59
2022/03/10 05:11:57;;;;;;;23.60;12.98;;;;;;;;;;5072108;28;20037;-59
2022/03/10 05:14:24;;;;;;;21.63;13.27;;;;;;;;;;5070779;28;20037;-59
2022/03/10 05:16:50;;;;;;;20.77;12.63;;;;;;;;;;5071867;28;20063;-59
2022/03/10 05:19:16;;;;;;;22.83;13.80;;;;;;;;;;5072507;28;20041;-58
2022/03/10 05:21:42;;;;;;;24.20;13.70;;;;;;;;;;5071476;28;20393;-58
2022/03/10 05:24:08;;;;;;;22.05;13.73;;;;;;;;;;5071209;28;20071;-59
2022/03/10 05:26:34;;;;;;;20.65;12.98;;;;;;;;;;5081726;28;20036;-59
2022/03/10 05:29:01;;;;;;;22.17;13.90;;;;;;;;;;5087214;22;20044;-59
2022/03/10 05:31:28;;;;;;;22.63;13.43;;;;;;;;;;5072072;28;20059;-59
2022/03/10 05:33:54;;;;;;;21.38;13.68;;;;;;;;;;5074478;28;20028;-59
2022/03/10 05:36:20;;;;;;;20.88;13.20;;;;;;;;;;5077355;28;20040;-59
2022/03/10 05:38:46;;;;;;;22.35;14.00;;;;;;;;;;5068692;28;20036;-59
2022/03/10 05:41:12;;;;;;;23.27;13.68;;;;;;;;;;5070830;28;20052;-59
2022/03/10 05:43:38;;;;;;;23.27;14.05;;;;;;;;;;5069887;28;20041;-60
2022/03/10 05:46:05;;;;;;;23.90;12.98;;;;;;;;;;5060991;28;20402;-59
2022/03/10 05:48:31;;;;;;;21.77;12.93;;;;;;;;;;5069780;28;20044;-59
2022/03/10 05:50:58;;;;;;;20.45;12.60;;;;;;;;;;5070255;28;20044;-60
2022/03/10 05:53:24;;;;;;;21.90;13.10;;;;;;;;;;5073446;28;20477;-60
2022/03/10 05:55:50;;;;;;;22.55;12.98;;;;;;;;;;5073490;28;20064;-59
2022/03/10 05:58:16;;;;;;;22.27;12.90;;;;;;;;;;5069319;28;20040;-60
2022/03/10 06:00:42;;;;;;;22.85;13.75;;;;;;;;;;5070751;28;20040;-59
2022/03/10 06:03:08;;;;;;;22.48;13.00;;;;;;;;;;5071713;28;20032;-59
2022/03/10 06:05:34;;;;;;;26.67;13.57;;;;;;;;;;5068889;28;20083;-60
2022/03/10 06:08:01;;;;;;;23.75;13.32;;;;;;;;;;5072396;28;20052;-59
2022/03/10 06:10:27;;;;;;;22.90;13.00;;;;;;;;;;5074118;28;20040;-59
2022/03/10 06:12:53;;;;;;;22.88;14.48;;;;;;;;;;5073074;28;20039;-59
2022/03/10 06:15:19;;;;;;;22.80;13.07;;;;;;;;;;5071835;28;20044;-59
2022/03/10 06:17:45;;;;;;;23.33;14.30;;;;;;;;;;5073078;28;20490;-59
2022/03/10 06:20:11;;;;;;;24.13;14.20;;;;;;;;;;5073503;28;20111;-59
2022/03/10 06:22:37;;;;;;;23.88;14.10;;;;;;;;;;5070879;28;20162;-59
2022/03/10 06:25:04;;;;;;;24.60;13.52;;;;;;;;;;5073980;28;20036;-59
2022/03/10 06:27:30;;;;;;;20.52;13.65;;;;;;;;;;5058512;28;20123;-59
2022/03/10 06:29:56;;;;;;;22.85;14.10;;;;;;;;;;5073570;28;20032;-59
2022/03/10 06:32:22;;;;;;;24.65;13.80;;;;;;;;;;5073465;28;20037;-59
2022/03/10 06:34:49;;;;;;;23.63;14.40;;;;;;;;;;5073492;28;20460;-59
2022/03/10 06:37:15;;;;;;;21.63;13.73;;;;;;;;;;5073037;28;20045;-59
2022/03/10 06:39:42;;;;;;;23.10;13.50;;;;;;;;;;5073628;28;20047;-59
2022/03/10 06:42:09;;;;;;;24.08;13.57;;;;;;;;;;5070934;28;20032;-59
2022/03/10 06:44:36;;;;;;;22.73;13.52;;;;;;;;;;5073570;28;20037;-59
2022/03/10 06:47:03;;;;;;;22.98;12.98;;;;;;;;;;5069937;28;20040;-59
2022/03/10 06:49:29;;;;;;;22.80;14.43;;;;;;;;;;5068848;28;20043;-59
2022/03/10 06:51:55;;;;;;;20.83;14.07;;;;;;;;;;5070912;28;20040;-59
2022/03/10 06:54:21;;;;;;;25.95;14.38;;;;;;;;;;5069907;28;20123;-59
2022/03/10 06:56:47;;;;;;;21.85;13.18;;;;;;;;;;5072448;28;20041;-60
2022/03/10 06:59:13;;;;;;;22.30;14.15;;;;;;;;;;5074272;28;20405;-59
2022/03/10 07:01:39;;;;;;;22.35;14.25;;;;;;;;;;5071292;28;20063;-59
2022/03/10 07:04:05;;;;;;;23.60;14.85;;;;;;;;;;5071716;28;20048;-59
2022/03/10 07:06:31;;;;;;;23.58;14.77;;;;;;;;;;5072604;28;20522;-59
2022/03/10 07:08:57;;;;;;;21.67;13.57;;;;;;;;;;5070394;28;20494;-60
2022/03/10 07:11:25;;;;;;;20.50;13.13;;;;;;;;;;5074956;28;20068;-59
2022/03/10 07:13:51;;;;;;;25.83;18.13;;;;;;;;;;5073347;28;20047;-59
2022/03/10 07:16:18;;;;;;;23.67;13.68;;;;;;;;;;5071668;28;20040;-59
2022/03/10 07:18:50;;;;;;;23.08;13.63;;;;;;;;;;5071325;28;20123;-59
2022/03/10 07:21:16;;;;;;;23.67;13.70;;;;;;;;;;5073024;28;20041;-60
2022/03/10 07:23:42;;;;;;;29.48;18.90;;;;;;;;;;5072622;28;20101;-59
2022/03/10 07:26:10;;;;;;;22.38;14.00;;;;;;;;;;5067386;28;20527;-59
2022/03/10 07:28:36;;;;;;;21.17;13.82;;;;;;;;;;5068127;28;20055;-59
2022/03/10 07:31:02;;;;;;;24.10;13.77;;;;;;;;;;5072745;28;20394;-59
2022/03/10 07:33:27;;;;;;;24.85;14.50;;;;;;;;;;5065419;28;20032;-59
2022/03/10 07:35:54;;;;;;;22.63;14.43;;;;;;;;;;5067103;28;20060;-60
2022/03/10 07:38:20;;;;;;;25.20;15.20;;;;;;;;;;5071902;28;20689;-59
2022/03/10 07:40:46;;;;;;;22.65;13.95;;;;;;;;;;5072743;28;20043;-59
2022/03/10 07:43:12;;;;;;;26.30;14.98;;;;;;;;;;5072626;28;20075;-60
2022/03/10 07:45:38;;;;;;;24.77;14.73;;;;;;;;;;5071869;28;20624;-59
2022/03/10 07:51:26;;;;;;;23.48;14.23;;;;;;;;;;5064959;28;20033;-60
2022/03/10 07:53:52;;;;;;;25.67;14.70;;;;;;;;;;5066528;28;20124;-60
2022/03/10 07:56:18;;;;;;;23.05;14.18;;;;;;;;;;5068757;28;20235;-60
2022/03/10 07:58:44;;;;;;;24.60;14.80;;;;;;;;;;5068549;28;20032;-59
2022/03/10 08:01:10;;;;;;;21.25;13.82;;;;;;;;;;5065504;28;20459;-59
2022/03/10 08:03:38;;;;;;;25.15;14.10;;;;;;;;;;5071465;28;20033;-60
2022/03/10 08:06:04;;;;;;;26.10;15.15;;;;;;;;;;5065931;28;20479;-59
2022/03/10 08:08:30;;;;;;;27.50;15.23;;;;;;;;;;5068781;28;20051;-59
2022/03/10 08:10:56;;;;;;;24.10;15.05;;;;;;;;;;5066577;28;20028;-59
2022/03/10 08:13:26;;;;;;;22.52;14.20;;;;;;;;;;5087563;28;20428;-59
2022/03/10 08:15:53;;;;;;;23.10;14.65;;;;;;;;;;5078960;28;20063;-60
2022/03/10 08:18:19;;;;;;;20.77;13.48;;;;;;;;;;5070241;28;20448;-59
2022/03/10 08:20:45;;;;;;;26.50;14.57;;;;;;;;;;5071827;28;20063;-60
2022/03/10 08:23:11;;;;;;;23.88;14.45;;;;;;;;;;5072007;28;20050;-60
2022/03/10 08:25:37;;;;;;;21.20;14.23;;;;;;;;;;5087673;28;20509;-60
2022/03/10 08:28:04;;;;;;;23.67;14.30;;;;;;;;;;5077142;28;20055;-60
2022/03/10 08:30:30;;;;;;;23.33;14.43;;;;;;;;;;5066299;28;20037;-60
2022/03/10 08:32:57;;;;;;;25.55;13.80;;;;;;;;;;5067840;28;20062;-60
2022/03/10 08:35:23;;;;;;;25.10;13.88;;;;;;;;;;5066542;28;20056;-60
2022/03/10 08:37:49;;;;;;;21.80;14.30;;;;;;;;;;5071169;28;20040;-60
2022/03/10 08:40:17;;;;;;;21.42;14.50;;;;;;;;;;5071935;28;20177;-60
2022/03/10 08:42:49;;;;;;;23.02;14.20;;;;;;;;;;5071068;28;20542;-60
2022/03/10 08:45:15;;;;;;;22.70;13.55;;;;;;;;;;5070614;28;20056;-60
2022/03/10 08:47:42;;;;;;;23.05;14.15;;;;;;;;;;5064542;28;20040;-59
2022/03/10 08:50:09;;;;;;;21.27;13.93;;;;;;;;;;5067624;28;20075;-59
2022/03/10 08:52:35;;;;;;;19.02;13.20;;;;;;;;;;5054554;28;20044;-59
2022/03/10 08:55:01;;;;;;;22.35;13.13;;;;;;;;;;5074689;28;20041;-59
2022/03/10 08:57:27;;;;;;;19.13;13.00;;;;;;;;;;5061405;28;20416;-59
2022/03/10 08:59:53;;;;;;;23.05;13.63;;;;;;;;;;5068417;28;20037;-59
2022/03/10 09:02:19;;;;;;;22.45;13.43;;;;;;;;;;5070424;28;20482;-59
2022/03/10 09:04:45;;;;;;;20.92;13.55;;;;;;;;;;5068438;28;20032;-59
2022/03/10 09:07:11;;;;;;;20.00;13.07;;;;;;;;;;5068235;28;20461;-59
2022/03/10 09:09:37;;;;;;;21.63;13.48;;;;;;;;;;5071953;28;20123;-59
2022/03/10 09:12:04;;;;;;;18.52;12.68;;;;;;;;;;5067448;28;20128;-59
2022/03/10 09:14:30;;;;;;;19.92;12.65;;;;;;;;;;5068080;28;20061;-59
2022/03/10 09:16:57;;;;;;;19.67;12.52;;;;;;;;;;5061545;28;20726;-59
2022/03/10 09:19:23;;;;;;;22.63;12.75;;;;;;;;;;5062655;28;20068;-59
2022/03/10 09:21:49;;;;;;;22.60;13.30;;;;;;;;;;5068773;28;20041;-60
2022/03/10 09:24:15;;;;;;;19.00;12.80;;;;;;;;;;5068272;28;20115;-59
2022/03/10 09:26:41;;;;;;;21.83;12.73;;;;;;;;;;5070006;28;20157;-60
2022/03/10 09:29:07;;;;;;;21.05;13.68;;;;;;;;;;5068723;28;20040;-59
2022/03/10 09:31:33;;;;;;;23.48;12.60;;;;;;;;;;5066252;28;20067;-59
2022/03/10 09:33:59;;;;;;;19.20;12.52;;;;;;;;;;5065903;28;20068;-59
2022/03/10 09:36:28;;;;;;;18.00;12.10;;;;;;;;;;5067450;28;20522;-59
2022/03/10 09:38:54;;;;;;;19.88;12.68;;;;;;;;;;5074384;28;20037;-59
2022/03/10 09:41:20;;;;;;;16.92;12.50;;;;;;;;;;5067776;28;20048;-59
2022/03/10 09:43:47;;;;;;;19.48;12.02;;;;;;;;;;5065281;28;20056;-59
2022/03/10 09:46:13;;;;;;;22.60;13.40;;;;;;;;;;5073772;28;20049;-59
2022/03/10 09:48:39;;;;;;;19.48;12.30;;;;;;;;;;5069970;28;20132;-60
2022/03/10 09:51:06;;;;;;;19.15;12.63;;;;;;;;;;5065195;28;20041;-60
2022/03/10 09:53:34;;;;;;;18.30;12.40;;;;;;;;;;5068315;28;20408;-59
2022/03/10 09:56:00;;;;;;;18.77;12.20;;;;;;;;;;5073505;28;20044;-60
2022/03/10 09:58:26;;;;;;;18.80;12.60;;;;;;;;;;5072600;28;20125;-59
2022/03/10 10:00:59;;;;;;;20.75;11.85;;;;;;;;;;5071870;28;20075;-59
2022/03/10 10:03:25;;;;;;;20.13;12.85;;;;;;;;;;5072502;28;20068;-60
2022/03/10 10:05:57;;;;;;;30.60;14.05;;;;;;;;;;5073605;28;20130;-59
2022/03/10 10:08:23;;;;;;;20.05;12.68;;;;;;;;;;5071581;28;20167;-59
2022/03/10 10:10:50;;;;;;;19.27;12.88;;;;;;;;;;5074843;28;20119;-60
2022/03/10 10:13:35;;;;;;;22.00;13.07;;;;;;;;;;5073025;28;20032;-60
2022/03/10 10:16:01;;;;;;;19.08;12.27;;;;;;;;;;5075978;28;20425;-59
2022/03/10 10:18:27;;;;;;;18.98;12.52;;;;;;;;;;5065817;28;20036;-59
2022/03/10 10:20:54;;;;;;;19.88;12.75;;;;;;;;;;5060084;28;20052;-60
2022/03/10 10:23:21;;;;;;;18.73;12.25;;;;;;;;;;5070729;28;20040;-60
2022/03/10 10:25:48;;;;;;;22.40;13.38;;;;;;;;;;5071444;28;20045;-59
2022/03/10 10:28:27;;;;;;;20.67;12.88;;;;;;;;;;5058333;28;20045;-60
2022/03/10 10:31:00;;;;;;;17.70;12.25;;;;;;;;;;5067886;28;20158;-60
2022/03/10 10:33:27;;;;;;;19.92;12.32;;;;;;;;;;5062456;28;20028;-59
2022/03/10 10:36:14;;;;;;;20.67;12.77;;;;;;;;;;5064728;28;20028;-60
2022/03/10 10:38:40;;;;;;;23.27;13.27;;;;;;;;;;5070869;28;20040;-60
2022/03/10 10:41:17;;;;;;;18.05;11.95;;;;;;;;;;5064388;28;20040;-60
2022/03/10 10:43:46;;;;;;;20.42;12.73;;;;;;;;;;5065954;28;20039;-60
2022/03/10 10:46:22;;;;;;;20.70;12.38;;;;;;;;;;5068629;28;20040;-60
2022/03/10 10:48:48;;;;;;;23.08;13.68;;;;;;;;;;5070165;28;20490;-59
2022/03/10 10:51:14;;;;;;;18.40;13.18;;;;;;;;;;5072612;28;20032;-60
2022/03/10 10:53:40;;;;;;;22.08;13.25;;;;;;;;;;5069193;28;20115;-59
2022/03/10 10:56:06;;;;;;;21.80;14.05;;;;;;;;;;5070337;28;20040;-60
2022/03/10 10:58:33;;;;;;;20.77;12.85;;;;;;;;;;5069254;28;20048;-59
2022/03/10 11:00:59;;;;;;;20.77;12.27;;;;;;;;;;5073131;28;20047;-60
2022/03/10 11:03:25;;;;;;;22.10;13.77;;;;;;;;;;5071107;28;20036;-60
2022/03/10 11:05:51;;;;;;;23.75;13.45;;;;;;;;;;5064512;28;20120;-60
2022/03/10 11:08:24;;;;;;;21.08;13.63;;;;;;;;;;5067122;28;20036;-59
2022/03/10 11:10:50;;;;;;;21.10;13.13;;;;;;;;;;5073285;28;20047;-59
2022/03/10 11:13:16;;;;;;;18.75;13.00;;;;;;;;;;5066437;28;20039;-60
2022/03/10 11:15:44;;;;;;;20.80;14.05;;;;;;;;;;5065808;28;20028;-59
2022/03/10 11:18:11;;;;;;;23.15;14.40;;;;;;;;;;5068569;28;20033;-59
2022/03/10 11:20:38;;;;;;;22.27;14.75;;;;;;;;;;5071749;28;20452;-59
2022/03/10 11:23:17;;;;;;;23.67;14.77;;;;;;;;;;5072496;28;20040;-59
2022/03/10 11:25:52;;;;;;;21.60;13.48;;;;;;;;;;5069423;28;20064;-59
2022/03/10 11:28:21;;;;;;;22.30;13.95;;;;;;;;;;5074639;22;20045;-59
2022/03/10 11:30:51;;;;;;;21.10;13.85;;;;;;;;;;5052978;28;20391;-59
2022/03/10 11:33:17;;;;;;;22.73;14.30;;;;;;;;;;5052523;28;20041;-59
2022/03/10 11:35:45;;;;;;;22.85;12.68;;;;;;;;;;5052472;28;20037;-59
2022/03/10 11:38:12;;;;;;;23.02;13.80;;;;;;;;;;5051872;28;20044;-59
2022/03/10 11:40:45;;;;;;;20.80;13.05;;;;;;;;;;5041816;28;20516;-59
2022/03/10 11:43:12;;;;;;;25.88;14.18;;;;;;;;;;5021729;28;20411;-59
2022/03/10 11:45:38;;;;;;;21.80;13.48;;;;;;;;;;5031912;28;20037;-59
2022/03/10 11:48:23;;;;;;;23.48;13.55;;;;;;;;;;5032389;28;20392;-59
2022/03/10 11:50:49;;;;;;;22.23;14.40;;;;;;;;;;5037279;28;20052;-59
2022/03/10 11:53:15;;;;;;;24.92;14.35;;;;;;;;;;5032691;28;20048;-59
2022/03/10 11:55:41;;;;;;;23.70;14.02;;;;;;;;;;5032287;28;20033;-59
2022/03/10 11:58:10;;;;;;;24.33;14.80;;;;;;;;;;5012388;28;20038;-59
2022/03/10 12:00:46;;;;;;;23.75;14.30;;;;;;;;;;5012620;28;20046;-59
2022/03/10 12:03:18;;;;;;;25.02;14.43;;;;;;;;;;5023455;28;20064;-59
2022/03/10 12:05:58;;;;;;;26.35;14.98;;;;;;;;;;5033642;28;20487;-59
2022/03/10 12:08:25;;;;;;;24.23;15.07;;;;;;;;;;5050082;28;20087;-59
2022/03/10 12:10:51;;;;;;;25.77;15.63;;;;;;;;;;5032376;28;20041;-59
2022/03/10 12:13:20;;;;;;;26.95;15.82;;;;;;;;;;5041442;28;20447;-59
2022/03/10 12:15:46;;;;;;;23.83;14.57;;;;;;;;;;5051731;28;20486;-59
2022/03/10 12:18:13;;;;;;;24.92;13.90;;;;;;;;;;5044321;28;20037;-59
2022/03/10 12:20:41;;;;;;;25.52;14.80;;;;;;;;;;5031771;28;20053;-59
2022/03/10 12:23:09;;;;;;;23.42;14.82;;;;;;;;;;5032015;28;20172;-59
2022/03/10 12:25:46;;;;;;;24.40;15.18;;;;;;;;;;5031979;28;20056;-59
2022/03/10 12:28:24;;;;;;;27.08;14.93;;;;;;;;;;5039993;28;20049;-59
2022/03/10 12:30:54;;;;;;;27.98;16.00;;;;;;;;;;5049981;28;20494;-59
2022/03/10 12:33:20;;;;;;;23.35;14.30;;;;;;;;;;5031513;28;20044;-59
2022/03/10 12:35:46;;;;;;;24.95;14.98;;;;;;;;;;5014060;28;20112;-59
2022/03/10 12:38:12;;;;;;;24.73;15.48;;;;;;;;;;5032734;28;20141;-59
2022/03/10 12:40:39;;;;;;;26.38;15.45;;;;;;;;;;5041061;28;20041;-59
2022/03/10 12:43:06;;;;;;;26.08;15.40;;;;;;;;;;5031865;28;20044;-59
2022/03/10 12:45:32;;;;;;;27.75;16.27;;;;;;;;;;5035205;28;20699;-59
2022/03/10 12:48:04;;;;;;;23.38;15.05;;;;;;;;;;5032324;28;20084;-59
2022/03/10 12:50:32;;;;;;;25.85;15.07;;;;;;;;;;5015999;28;20060;-59
2022/03/10 12:52:58;;;;;;;29.10;15.60;;;;;;;;;;5031139;28;20040;-59
2022/03/10 12:55:27;;;;;;;27.10;15.70;;;;;;;;;;5031897;28;20038;-59
2022/03/10 12:57:57;;;;;;;26.17;15.35;;;;;;;;;;5049078;28;20052;-59
2022/03/10 13:00:23;;;;;;;24.15;14.40;;;;;;;;;;5042349;28;20056;-59
2022/03/10 13:02:49;;;;;;;26.60;15.30;;;;;;;;;;5036366;28;20042;-59
2022/03/10 13:05:22;;;;;;;25.67;15.05;;;;;;;;;;5035431;28;20045;-59
2022/03/10 13:07:48;;;;;;;27.00;15.95;;;;;;;;;;5035556;28;20094;-59
2022/03/10 13:10:17;;;;;;;26.83;15.68;;;;;;;;;;5035450;28;20037;-59
2022/03/10 13:12:45;;;;;;;24.45;15.13;;;;;;;;;;5035239;28;20033;-59
2022/03/10 13:15:24;;;;;;;24.65;15.18;;;;;;;;;;5035695;28;20530;-59
2022/03/10 13:17:51;;;;;;;25.52;15.10;;;;;;;;;;5044538;28;20041;-60
2022/03/10 13:20:24;;;;;;;27.73;15.73;;;;;;;;;;5035395;28;20514;-59
2022/03/10 13:22:54;;;;;;;25.70;15.30;;;;;;;;;;5035236;28;20072;-59
2022/03/10 13:25:21;;;;;;;26.27;15.48;;;;;;;;;;5049981;28;20036;-59
2022/03/10 13:27:48;;;;;;;27.88;15.23;;;;;;;;;;5054051;28;20045;-59
2022/03/10 13:30:18;;;;;;;25.42;15.10;;;;;;;;;;5043333;28;20046;-59
2022/03/10 13:32:45;;;;;;;26.70;15.68;;;;;;;;;;5035071;28;20483;-59
2022/03/10 13:35:11;;;;;;;24.77;15.25;;;;;;;;;;5034961;28;20049;-59
2022/03/10 13:37:39;;;;;;;25.48;15.15;;;;;;;;;;5035697;28;20129;-60
2022/03/10 13:40:06;;;;;;;25.77;15.15;;;;;;;;;;5035138;28;20087;-59
2022/03/10 13:42:32;;;;;;;28.40;15.65;;;;;;;;;;5034286;28;20407;-59
2022/03/10 13:45:09;;;;;;;25.67;15.05;;;;;;;;;;5042779;28;20288;-59
2022/03/10 13:47:48;;;;;;;26.30;15.00;;;;;;;;;;5046249;28;20601;-59
2022/03/10 13:50:17;;;;;;;28.40;15.65;;;;;;;;;;5034724;28;20048;-59
2022/03/10 13:52:43;;;;;;;27.65;15.20;;;;;;;;;;5037392;28;20036;-59
2022/03/10 13:55:11;;;;;;;26.02;15.95;;;;;;;;;;5034681;28;20052;-59
2022/03/10 13:57:37;;;;;;;26.83;16.27;;;;;;;;;;5034601;28;20467;-60
2022/03/10 14:00:05;;;;;;;25.55;15.55;;;;;;;;;;5034800;28;20084;-59
2022/03/10 14:02:31;;;;;;;29.02;16.17;;;;;;;;;;5040237;28;20045;-60
2022/03/10 14:04:57;;;;;;;26.05;16.20;;;;;;;;;;5054224;28;20442;-60
2022/03/10 14:07:23;;;;;;;31.20;16.25;;;;;;;;;;5052243;28;20072;-59
2022/03/10 14:09:50;;;;;;;28.17;16.25;;;;;;;;;;5041724;28;20041;-60
2022/03/10 14:12:22;;;;;;;26.52;16.70;;;;;;;;;;5016403;28;20115;-59
2022/03/10 14:14:54;;;;;;;28.67;15.52;;;;;;;;;;5034445;28;20099;-59
2022/03/10 14:17:20;;;;;;;27.77;15.88;;;;;;;;;;5029146;28;20461;-59
2022/03/10 14:19:47;;;;;;;30.67;17.88;;;;;;;;;;5034557;28;20037;-59
2022/03/10 14:22:17;;;;;;;28.45;16.60;;;;;;;;;;5039673;28;20037;-59
2022/03/10 14:24:43;;;;;;;30.08;16.95;;;;;;;;;;5030417;28;20052;-59